Time;durP1;ratioP1;P1;durP2;ratioP2;P2;SDS_P1;SDS_P2;PMS_P1;PMS_P2;Temp;Humidity;BMP_temperature;BMP_pressure;BME280_temperature;BME280_humidity;BME280_pressure;Samples;Min_cycle;Max_cycle;Signal;HPM_P1;HPM_P2
2022/01/22 00:01:13;;;;;;;4.70;2.20;;;;;;;-2.67;84.18;98709.85;219787;1271;25953;-69
2022/01/22 00:06:16;;;;;;;3.70;1.70;;;;;;;-2.64;84.09;98702.02;219926;1270;22738;-68
2022/01/22 00:11:28;;;;;;;6.30;2.00;;;;;;;-2.60;84.04;98698.90;219812;1271;23062;-67
2022/01/22 00:16:31;;;;;;;4.80;2.20;;;;;;;-2.56;84.05;98703.52;219883;1271;25457;-68
2022/01/22 00:21:38;;;;;;;7.40;2.30;;;;;;;-2.53;84.13;98704.75;219610;1269;26524;-67
2022/01/22 00:26:44;;;;;;;4.20;1.50;;;;;;;-2.52;84.06;98709.90;219581;1271;25455;-66
2022/01/22 00:31:50;;;;;;;4.20;1.80;;;;;;;-2.50;84.26;98709.65;219616;1270;22655;-69
2022/01/22 00:37:02;;;;;;;5.50;2.00;;;;;;;-2.46;84.32;98706.90;219822;1271;24308;-69
2022/01/22 00:42:12;;;;;;;6.40;2.60;;;;;;;-2.42;84.27;98704.80;219766;1270;22566;-68
2022/01/22 00:47:41;;;;;;;7.30;2.90;;;;;;;-2.36;84.31;98705.55;219892;1271;25703;-67
2022/01/22 00:52:46;;;;;;;5.20;2.40;;;;;;;-2.33;84.28;98706.87;219728;1271;25286;-69
2022/01/22 01:04:34;;;;;;;;;;;;;;;;;;;;;
2022/01/22 01:09:49;;;;;;;7.80;3.10;;;;;;;-2.27;84.25;98690.80;220023;1271;24390;-69
2022/01/22 01:16:44;;;;;;;6.90;2.70;;;;;;;-2.25;84.48;98684.09;219424;1271;25576;-69
2022/01/22 01:32:52;;;;;;;7.20;2.50;;;;;;;-2.21;84.52;98684.75;219875;1270;25456;-69
2022/01/22 01:37:57;;;;;;;5.60;2.30;;;;;;;-2.19;84.60;98676.98;219658;1271;22542;-69
2022/01/22 01:48:18;;;;;;;7.10;2.40;;;;;;;-2.15;84.50;98678.92;219686;1271;22608;-68
2022/01/22 01:53:58;;;;;;;4.70;2.30;;;;;;;-2.14;84.34;98679.02;219431;1271;25406;-69
2022/01/22 01:59:00;;;;;;;6.30;2.10;;;;;;;-2.13;84.29;98679.39;219953;1271;25414;-69
2022/01/22 02:04:08;;;;;;;3.60;1.80;;;;;;;-2.12;84.57;98672.98;219642;1271;22564;-69
2022/01/22 02:09:20;;;;;;;6.60;2.10;;;;;;;-2.13;84.36;98665.52;219780;1271;22782;-68
2022/01/22 02:26:15;;;;;;;3.70;1.70;;;;;;;-2.16;84.53;98658.99;219476;1271;25453;-68
2022/01/22 02:31:41;;;;;;;2.50;1.60;;;;;;;-2.15;84.47;98656.96;219867;1271;23894;-68
2022/01/22 02:37:13;;;;;;;5.60;1.80;;;;;;;-2.16;84.29;98657.56;219909;1271;22557;-69
2022/01/22 02:42:44;;;;;;;1.80;1.10;;;;;;;-2.16;84.20;98663.42;219698;1271;22566;-69
2022/01/22 02:47:55;;;;;;;2.50;1.00;;;;;;;-2.19;84.48;98664.52;219817;1271;22620;-69
2022/01/22 02:53:13;;;;;;;2.80;1.20;;;;;;;-2.25;84.27;98664.86;219896;1271;22566;-69
2022/01/22 02:58:39;;;;;;;2.30;1.10;;;;;;;-2.35;83.93;98668.29;219064;1271;22550;-68
2022/01/22 03:04:03;;;;;;;;;;;;;;;;;;;;;
2022/01/22 03:09:40;;;;;;;3.20;1.50;;;;;;;-2.43;84.11;98677.65;219299;1271;22557;-69
2022/01/22 03:30:46;;;;;;;2.30;1.00;;;;;;;-2.37;84.29;98699.83;218847;1273;26575;-68
2022/01/22 03:35:55;;;;;;;2.10;1.50;;;;;;;-2.39;84.29;98705.92;219225;1272;22679;-68
2022/01/22 03:41:20;;;;;;;3.20;1.60;;;;;;;-2.38;84.16;98708.58;219599;1271;22586;-69
2022/01/22 03:46:42;;;;;;;3.50;1.60;;;;;;;-2.38;84.32;98711.05;219120;1273;24138;-69
2022/01/22 03:52:05;;;;;;;5.50;2.20;;;;;;;-2.39;83.94;98715.36;219611;1272;25397;-70
2022/01/22 03:57:11;;;;;;;3.60;1.90;;;;;;;-2.43;83.90;98715.95;219548;1271;24459;-69
2022/01/22 04:02:52;;;;;;;2.70;1.60;;;;;;;-2.51;83.61;98712.44;219709;1271;25614;-69
2022/01/22 04:13:01;;;;;;;3.30;1.60;;;;;;;-2.86;83.68;98719.70;219762;1271;22541;-69
2022/01/22 04:28:59;;;;;;;4.90;2.50;;;;;;;-3.61;83.32;98736.62;219821;1271;22744;-68
2022/01/22 04:34:01;;;;;;;3.90;2.40;;;;;;;-3.79;83.64;98735.15;219910;1271;22923;-69
2022/01/22 04:39:13;;;;;;;4.70;2.70;;;;;;;-3.87;83.89;98736.69;220001;1271;22680;-68
2022/01/22 04:44:18;;;;;;;4.60;3.40;;;;;;;-3.93;84.24;98741.41;219925;1271;22597;-68
2022/01/22 04:55:17;;;;;;;7.10;3.20;;;;;;;-4.13;84.02;98756.98;219841;1271;24186;-70
2022/01/22 05:00:50;;;;;;;4.20;3.30;;;;;;;-4.28;83.94;98771.98;219757;1271;24734;-68
2022/01/22 05:06:29;;;;;;;6.30;4.10;;;;;;;-4.52;83.64;98787.80;219298;1271;25633;-69
2022/01/22 05:11:57;;;;;;;6.10;4.00;;;;;;;-4.63;84.04;98796.68;220131;1271;25476;-68
2022/01/22 05:17:21;;;;;;;9.30;4.90;;;;;;;-4.66;84.33;98810.29;219780;1271;25635;-68
2022/01/22 05:22:56;;;;;;;6.50;4.20;;;;;;;-4.58;84.78;98820.70;219485;1271;22994;-68
2022/01/22 05:40:21;;;;;;;12.00;5.40;;;;;;;-4.38;85.04;98837.40;219523;1271;22622;-69
2022/01/22 05:45:38;;;;;;;9.70;5.20;;;;;;;-4.27;85.17;98846.52;219413;1271;25648;-70
2022/01/22 05:50:57;;;;;;;10.70;5.90;;;;;;;-4.21;85.33;98856.34;219797;1271;22616;-69
2022/01/22 06:02:13;;;;;;;8.90;4.80;;;;;;;-4.25;85.09;98876.31;219980;1269;25557;-69
2022/01/22 06:07:22;;;;;;;8.40;4.60;;;;;;;-4.31;84.91;98882.74;219832;1271;22675;-68
2022/01/22 06:18:30;;;;;;;7.90;4.60;;;;;;;-4.28;85.40;98910.75;219576;1271;24212;-68
2022/01/22 06:24:39;;;;;;;11.60;6.00;;;;;;;-4.10;85.90;98923.73;219962;1271;22603;-68
2022/01/22 06:30:56;;;;;;;9.10;5.20;;;;;;;-3.84;86.04;98931.93;219639;1271;22558;-69
2022/01/22 06:36:32;;;;;;;;;;;;;;;;;;;;;
2022/01/22 06:42:31;;;;;;;;;;;;;;;;;;;;;
2022/01/22 06:47:59;;;;;;;11.10;6.20;;;;;;;-3.64;85.40;98947.70;219652;1271;22677;-69
2022/01/22 06:53:26;;;;;;;;;;;;;;;;;;;;;
2022/01/22 06:59:08;;;;;;;7.10;4.90;;;;;;;-3.92;84.81;98953.30;219665;1271;27775;-69
2022/01/22 07:04:57;;;;;;;8.90;5.10;;;;;;;-4.10;84.81;98953.56;219850;1271;22624;-68
2022/01/22 07:10:56;;;;;;;9.30;5.30;;;;;;;-4.22;84.79;98969.73;220000;1271;22779;-68
2022/01/22 07:16:16;;;;;;;8.40;5.30;;;;;;;-4.23;84.95;98986.61;219060;1272;22652;-70
2022/01/22 07:21:51;;;;;;;7.90;5.30;;;;;;;-4.13;85.21;99002.23;219763;1271;22562;-69
2022/01/22 07:26:57;;;;;;;10.60;6.00;;;;;;;-3.94;85.32;99011.19;219976;1271;27553;-68
2022/01/22 07:32:13;;;;;;;9.50;5.50;;;;;;;-3.86;85.20;99011.02;219968;1268;25603;-68
2022/01/22 07:37:21;;;;;;;10.50;5.80;;;;;;;-3.86;84.79;99009.84;219800;1271;25591;-68
2022/01/22 07:43:00;;;;;;;10.90;5.20;;;;;;;-3.88;84.76;99020.34;220282;1271;25602;-69
2022/01/22 07:48:28;;;;;;;9.10;5.40;;;;;;;-3.81;84.91;99030.30;220069;1271;23277;-69
2022/01/22 07:53:49;;;;;;;10.80;4.60;;;;;;;-3.59;85.11;99031.88;219893;1271;22858;-68
2022/01/22 07:59:06;;;;;;;;;;;;;;;-3.48;84.54;99035.37;219800;1271;22533;-68
2022/01/22 08:04:11;;;;;;;7.40;4.20;;;;;;;-3.45;84.44;99040.95;219914;1271;22710;-70
2022/01/22 08:09:37;;;;;;;6.20;4.00;;;;;;;-3.25;84.74;99046.96;219611;1268;22787;-68
2022/01/22 08:14:52;;;;;;;8.20;4.40;;;;;;;-3.07;84.30;99053.85;219374;1270;22844;-68
2022/01/22 08:19:54;;;;;;;10.40;5.20;;;;;;;-2.89;84.43;99057.58;215690;1269;5340043;-68
2022/01/22 08:25:21;;;;;;;9.30;4.90;;;;;;;-2.63;84.23;99055.69;219708;1271;24210;-67
2022/01/22 08:30:33;;;;;;;9.20;4.00;;;;;;;-2.33;84.11;99052.25;219616;1268;24308;-67
2022/01/22 08:36:02;;;;;;;6.40;3.90;;;;;;;-2.26;83.33;99063.25;219853;1269;22580;-67
2022/01/22 08:41:05;;;;;;;8.10;3.60;;;;;;;-2.22;83.21;99072.39;219821;1269;24272;-66
2022/01/22 08:46:09;;;;;;;5.40;3.50;;;;;;;-2.13;83.31;99081.33;219511;1271;24986;-67
2022/01/22 08:51:13;;;;;;;7.40;4.10;;;;;;;-1.90;83.08;99088.02;220163;1271;22557;-68
2022/01/22 08:56:28;;;;;;;7.70;4.30;;;;;;;-1.73;82.75;99094.30;219490;1271;24388;-68
2022/01/22 09:01:53;;;;;;;7.30;4.30;;;;;;;-1.55;82.39;99107.16;219656;1269;24281;-67
2022/01/22 09:07:16;;;;;;;9.50;4.80;;;;;;;-1.33;82.39;99115.27;220109;1268;24979;-67
2022/01/22 09:12:31;;;;;;;7.40;4.80;;;;;;;-1.17;81.58;99121.61;219938;1271;24247;-66
2022/01/22 09:17:48;;;;;;;6.40;3.70;;;;;;;-1.16;81.05;99129.38;219707;1271;22770;-68
2022/01/22 09:22:53;;;;;;;6.90;3.60;;;;;;;-1.21;80.87;99145.27;219925;1271;25354;-67
2022/01/22 09:28:08;;;;;;;6.00;3.60;;;;;;;-1.16;80.61;99162.15;220179;1268;22582;-67
2022/01/22 09:33:11;;;;;;;6.80;3.50;;;;;;;-1.04;80.11;99173.76;219891;1269;22595;-67
2022/01/22 09:38:36;;;;;;;8.40;4.70;;;;;;;-0.95;79.40;99178.52;219487;1269;22749;-68
2022/01/22 09:44:06;;;;;;;8.20;3.90;;;;;;;-0.96;78.85;99191.31;219475;1271;22627;-67
2022/01/22 09:49:14;;;;;;;6.70;3.70;;;;;;;-0.93;78.98;99184.92;219096;1271;22561;-68
2022/01/22 09:55:09;;;;;;;;;;;;;;;;;;;;;
2022/01/22 10:00:54;;;;;;;7.30;3.90;;;;;;;-0.72;78.18;99180.41;220011;1268;22604;-69
2022/01/22 10:06:26;;;;;;;6.70;3.90;;;;;;;-0.63;77.71;99190.08;220038;1268;22658;-68
2022/01/22 10:12:53;;;;;;;;;;;;;;;;;;;;;
2022/01/22 10:18:28;;;;;;;9.30;4.10;;;;;;;-0.77;76.36;99191.06;219388;1268;23223;-68
2022/01/22 10:23:48;;;;;;;7.30;3.50;;;;;;;-0.91;75.70;99197.07;219507;1271;22545;-68
2022/01/22 10:29:01;;;;;;;5.40;3.30;;;;;;;-1.09;75.94;99202.03;219716;1271;25016;-68
2022/01/22 10:34:06;;;;;;;5.60;2.80;;;;;;;-1.25;75.41;99208.73;219949;1269;22925;-68
2022/01/22 10:39:50;;;;;;;5.70;2.80;;;;;;;-1.26;75.41;99211.29;219953;1271;22806;-68
2022/01/22 10:45:22;;;;;;;7.30;2.80;;;;;;;-1.06;75.82;99217.40;220068;1271;22560;-69
2022/01/22 10:51:26;;;;;;;6.30;2.80;;;;;;;-0.79;75.03;99225.09;220074;1271;22710;-69
2022/01/22 10:56:53;;;;;;;6.00;3.20;;;;;;;-0.53;74.42;99228.08;219834;1271;23531;-69
2022/01/22 11:02:27;;;;;;;7.50;3.20;;;;;;;-0.56;73.07;99229.24;219494;1271;22718;-68
2022/01/22 11:08:12;;;;;;;5.80;3.20;;;;;;;-0.69;72.94;99232.10;219976;1270;22561;-68
2022/01/22 11:13:19;;;;;;;5.50;3.40;;;;;;;-0.66;72.85;99241.21;220159;1271;22561;-69
2022/01/22 11:18:37;;;;;;;7.20;3.40;;;;;;;-0.59;73.52;99237.55;219355;1271;22720;-69
2022/01/22 11:23:41;;;;;;;7.10;3.20;;;;;;;-0.47;73.09;99241.76;220101;1271;25405;-70
2022/01/22 11:28:54;;;;;;;7.30;3.60;;;;;;;-0.43;72.85;99244.83;219912;1271;25224;-68
2022/01/22 11:34:00;;;;;;;5.90;3.20;;;;;;;-0.39;72.65;99247.38;220051;1268;24211;-69
2022/01/22 11:39:46;;;;;;;;;;;;;;;;;;;;;
2022/01/22 11:45:02;;;;;;;5.80;2.30;;;;;;;-0.40;72.31;99248.95;219450;1271;22563;-68
2022/01/22 11:50:10;;;;;;;6.80;2.50;;;;;;;-0.38;71.53;99259.61;219905;1268;22613;-69
2022/01/22 11:55:18;;;;;;;3.30;2.30;;;;;;;-0.36;71.41;99276.90;219575;1271;25359;-68
2022/01/22 12:00:27;;;;;;;3.60;2.00;;;;;;;-0.39;70.82;99292.38;219685;1268;22570;-66
2022/01/22 12:23:08;;;;;;;3.40;1.80;;;;;;;-0.63;70.53;99326.83;219572;1271;25420;-68
2022/01/22 12:28:48;;;;;;;5.00;2.30;;;;;;;-0.55;70.09;99325.98;219297;1271;22572;-69
2022/01/22 12:33:54;;;;;;;7.10;2.50;;;;;;;-0.55;70.06;99329.71;219616;1271;25523;-68
2022/01/22 12:39:10;;;;;;;4.30;2.40;;;;;;;-0.56;69.85;99324.98;219696;1271;25989;-68
2022/01/22 12:44:33;;;;;;;6.30;2.20;;;;;;;-0.63;69.55;99318.70;220039;1269;22789;-69
2022/01/22 12:49:39;;;;;;;4.90;2.20;;;;;;;-0.71;69.37;99332.89;220012;1270;22577;-67
2022/01/22 12:54:48;;;;;;;5.50;2.30;;;;;;;-0.76;69.21;99338.11;219950;1270;22699;-68
2022/01/22 13:00:03;;;;;;;4.50;2.10;;;;;;;-0.82;69.29;99350.23;219660;1269;22821;-69
2022/01/22 13:05:20;;;;;;;4.60;2.10;;;;;;;-0.85;69.32;99356.06;219823;1271;22657;-67
2022/01/22 13:10:54;;;;;;;3.80;2.20;;;;;;;-0.85;69.90;99364.52;220013;1271;24244;-68
2022/01/22 13:16:27;;;;;;;5.20;2.40;;;;;;;-0.87;69.09;99374.23;219963;1271;22746;-68
2022/01/22 13:22:04;;;;;;;5.40;1.90;;;;;;;-0.95;69.32;99375.58;220217;1270;23052;-68
2022/01/22 13:27:17;;;;;;;4.50;2.40;;;;;;;-1.08;69.46;99377.94;219973;1271;25536;-68
2022/01/22 13:32:38;;;;;;;6.60;2.10;;;;;;;-1.13;70.22;99390.55;219779;1271;22560;-67
2022/01/22 13:55:55;;;;;;;4.80;2.00;;;;;;;-1.32;70.52;99439.16;219923;1271;22538;-68
2022/01/22 14:01:49;;;;;;;3.90;2.30;;;;;;;-1.37;70.97;99441.02;219672;1271;24820;-68
2022/01/22 14:07:46;;;;;;;5.90;2.40;;;;;;;-1.42;71.09;99444.96;219681;1271;25306;-67
2022/01/22 14:13:35;;;;;;;7.00;2.50;;;;;;;-1.49;71.02;99447.58;219572;1271;22538;-69
2022/01/22 14:18:59;;;;;;;6.10;2.30;;;;;;;-1.57;71.44;99457.68;219981;1271;22551;-68
2022/01/22 14:24:09;;;;;;;8.90;3.10;;;;;;;-1.63;71.28;99468.06;219711;1271;22669;-69
2022/01/22 14:29:23;;;;;;;4.30;2.40;;;;;;;-1.67;71.82;99471.96;219988;1271;22660;-68
2022/01/22 14:34:49;;;;;;;7.40;2.80;;;;;;;-1.71;72.01;99476.79;219767;1271;25337;-68
2022/01/22 14:45:11;;;;;;;6.70;2.80;;;;;;;-1.79;72.19;99481.04;219873;1271;22748;-68
2022/01/22 14:50:13;;;;;;;6.90;2.60;;;;;;;-1.81;72.50;99481.20;219758;1271;22616;-68
2022/01/22 14:55:27;;;;;;;6.80;2.40;;;;;;;-1.83;72.50;99487.77;219931;1271;22655;-68
2022/01/22 15:00:37;;;;;;;5.30;2.20;;;;;;;-1.84;72.69;99493.48;219768;1271;22748;-69
2022/01/22 15:06:04;;;;;;;5.30;3.10;;;;;;;-1.88;72.47;99507.10;219929;1271;24257;-68
2022/01/22 15:11:30;;;;;;;6.60;3.00;;;;;;;-1.94;72.71;99524.08;219580;1271;23430;-68
2022/01/22 15:16:44;;;;;;;6.70;2.90;;;;;;;-2.01;72.73;99532.42;219860;1271;25461;-69
2022/01/22 15:22:30;;;;;;;;;;;;;;;;;;;;;
2022/01/22 15:28:15;;;;;;;9.50;3.00;;;;;;;-2.12;73.04;99544.29;220051;1271;25661;-68
2022/01/22 15:33:52;;;;;;;7.40;2.90;;;;;;;-2.15;73.23;99553.09;220048;1271;25481;-69
2022/01/22 15:40:26;;;;;;;8.30;2.90;;;;;;;-2.17;73.37;99562.10;219558;1271;24014;-68
2022/01/22 15:45:50;;;;;;;6.30;2.60;;;;;;;-2.18;73.43;99567.10;219947;1271;22597;-68
2022/01/22 15:51:06;;;;;;;6.50;2.80;;;;;;;-2.18;73.31;99578.48;220130;1270;22559;-68
2022/01/22 15:56:11;;;;;;;6.60;2.70;;;;;;;-2.20;73.27;99580.97;219753;1271;25512;-69
2022/01/22 16:01:29;;;;;;;4.70;2.50;;;;;;;-2.22;73.34;99591.69;220143;1271;22643;-68
2022/01/22 16:06:57;;;;;;;6.80;2.90;;;;;;;-2.23;73.31;99608.64;220216;1271;22579;-68
2022/01/22 16:12:00;;;;;;;6.50;2.80;;;;;;;-2.24;73.30;99613.99;219807;1271;24531;-67
2022/01/22 16:17:24;;;;;;;5.60;2.90;;;;;;;-2.25;73.42;99625.95;219610;1271;24390;-69
2022/01/22 16:22:36;;;;;;;9.40;3.60;;;;;;;-2.27;73.56;99629.73;219474;1271;24782;-68
2022/01/22 16:27:40;;;;;;;12.40;4.40;;;;;;;-2.28;73.66;99643.84;219457;1271;22570;-67
2022/01/22 16:32:42;;;;;;;10.70;4.00;;;;;;;-2.28;73.76;99642.59;219868;1271;22566;-68
2022/01/22 16:37:47;;;;;;;10.60;4.90;;;;;;;-2.29;73.65;99644.38;219763;1271;24275;-69
2022/01/22 16:42:59;;;;;;;13.10;4.90;;;;;;;-2.30;73.85;99644.65;219842;1269;22737;-69
2022/01/22 16:54:20;;;;;;;13.80;4.70;;;;;;;-2.32;73.96;99653.56;219825;1271;22608;-68
2022/01/22 16:59:19;;;;;;;10.90;4.30;;;;;;;-2.32;73.88;99657.14;219885;1271;22950;-68
2022/01/22 17:04:26;;;;;;;9.70;4.50;;;;;;;-2.33;74.09;99662.88;220068;1271;25421;-69
2022/01/22 17:14:57;;;;;;;10.90;4.60;;;;;;;-2.34;74.02;99673.27;220023;1269;22672;-69
2022/01/22 17:20:00;;;;;;;16.00;5.20;;;;;;;-2.36;74.19;99678.02;219946;1271;23064;-68
2022/01/22 17:25:03;;;;;;;8.10;4.00;;;;;;;-2.35;74.25;99693.66;219682;1271;22576;-69
2022/01/22 17:30:07;;;;;;;12.40;4.60;;;;;;;-2.35;74.22;99699.77;219898;1271;24230;-69
2022/01/22 17:35:50;;;;;;;10.30;3.80;;;;;;;-2.34;74.14;99699.40;219977;1271;22762;-68
2022/01/22 17:41:04;;;;;;;9.00;3.60;;;;;;;-2.35;74.03;99708.08;220434;1271;22613;-68
2022/01/22 17:46:10;;;;;;;8.30;3.40;;;;;;;-2.35;74.11;99701.04;220093;1271;22602;-68
2022/01/22 17:51:13;;;;;;;9.70;3.70;;;;;;;-2.35;74.12;99706.79;219876;1271;22639;-68
2022/01/22 17:56:16;;;;;;;7.70;3.60;;;;;;;-2.36;74.14;99707.86;220022;1271;22684;-68
2022/01/22 18:01:20;;;;;;;9.50;3.40;;;;;;;-2.37;74.13;99713.24;220021;1271;24820;-68
2022/01/22 18:06:27;;;;;;;10.40;4.20;;;;;;;-2.41;74.06;99718.68;220304;1271;24215;-68
2022/01/22 18:11:29;;;;;;;10.00;4.40;;;;;;;-2.46;74.05;99721.89;219431;1271;22943;-68
2022/01/22 18:16:36;;;;;;;9.00;3.90;;;;;;;-2.49;74.28;99732.73;219339;1271;26015;-68
2022/01/22 18:21:40;;;;;;;12.40;5.60;;;;;;;-2.51;74.16;99727.62;220071;1270;22626;-69
2022/01/22 18:26:46;;;;;;;14.40;5.00;;;;;;;-2.52;74.33;99732.96;220307;1271;22608;-68
2022/01/22 18:31:59;;;;;;;10.40;4.70;;;;;;;-2.52;74.28;99730.43;219684;1271;22604;-68
2022/01/22 18:37:02;;;;;;;9.20;3.70;;;;;;;-2.52;74.27;99730.70;219906;1271;22803;-69
2022/01/22 18:42:06;;;;;;;8.00;4.00;;;;;;;-2.54;74.18;99734.92;219921;1271;25678;-69
2022/01/22 18:47:11;;;;;;;10.30;3.80;;;;;;;-2.56;74.10;99732.15;220273;1271;22739;-69
2022/01/22 18:52:13;;;;;;;8.40;3.80;;;;;;;-2.58;74.15;99742.21;220043;1271;22543;-69
2022/01/22 18:57:16;;;;;;;8.60;4.20;;;;;;;-2.62;74.05;99743.49;219712;1271;25438;-68
2022/01/22 19:02:20;;;;;;;9.60;4.20;;;;;;;-2.66;74.02;99746.38;220228;1270;22597;-68
2022/01/22 19:07:28;;;;;;;7.20;4.00;;;;;;;-2.68;74.15;99743.31;220129;1271;22828;-68
2022/01/22 19:12:31;;;;;;;8.50;3.40;;;;;;;-2.69;73.93;99749.20;220323;1270;25393;-69
2022/01/22 19:17:33;;;;;;;6.00;3.30;;;;;;;-2.73;74.03;99757.08;219668;1271;22611;-68
2022/01/22 19:23:00;;;;;;;10.70;4.10;;;;;;;-2.75;73.98;99759.35;219731;1271;22969;-69
2022/01/22 19:28:23;;;;;;;9.90;3.90;;;;;;;-2.77;74.07;99759.79;220234;1271;24240;-69
2022/01/22 19:33:25;;;;;;;14.00;4.80;;;;;;;-2.80;73.96;99765.39;220241;1271;25620;-69
2022/01/22 19:38:30;;;;;;;11.00;4.50;;;;;;;-2.83;74.05;99770.43;219628;1271;23039;-67
2022/01/22 19:43:35;;;;;;;9.30;4.30;;;;;;;-2.84;74.03;99771.77;219805;1271;23699;-68
2022/01/22 19:48:37;;;;;;;7.50;3.70;;;;;;;-2.85;74.08;99768.34;220198;1271;22643;-66
2022/01/22 19:53:40;;;;;;;7.80;4.10;;;;;;;-2.88;73.96;99772.20;220084;1269;22617;-68
2022/01/22 19:58:43;;;;;;;8.80;4.30;;;;;;;-2.90;74.05;99772.81;219991;1271;22802;-68
2022/01/22 20:03:45;;;;;;;7.40;3.20;;;;;;;-2.91;73.96;99765.54;220097;1271;22717;-69
2022/01/22 20:08:53;;;;;;;7.90;3.00;;;;;;;-2.93;73.93;99763.82;220042;1271;22639;-68
2022/01/22 20:13:58;;;;;;;9.50;3.20;;;;;;;-2.95;73.93;99763.70;220187;1270;25610;-68
2022/01/22 20:19:00;;;;;;;8.20;3.90;;;;;;;-2.98;73.98;99760.94;212685;1271;10389153;-69
2022/01/22 20:24:11;;;;;;;11.40;4.10;;;;;;;-3.01;74.14;99760.42;220030;1271;22601;-67
2022/01/22 20:29:14;;;;;;;10.80;3.90;;;;;;;-3.04;73.94;99765.02;220074;1271;22748;-68
2022/01/22 20:34:17;;;;;;;8.50;3.40;;;;;;;-3.08;74.17;99762.75;220139;1269;25525;-68
2022/01/22 20:39:19;;;;;;;9.80;3.90;;;;;;;-3.10;74.23;99761.61;219794;1271;25370;-67
2022/01/22 20:44:22;;;;;;;8.40;3.70;;;;;;;-3.12;74.25;99763.32;220329;1270;22576;-68
2022/01/22 20:49:27;;;;;;;10.00;3.80;;;;;;;-3.12;74.26;99765.82;220054;1271;25405;-69
2022/01/22 20:54:29;;;;;;;7.80;3.20;;;;;;;-3.12;74.34;99770.02;220280;1271;24158;-67
2022/01/22 20:59:32;;;;;;;8.40;3.30;;;;;;;-3.13;74.19;99769.11;219990;1271;22642;-68
2022/01/22 21:04:35;;;;;;;8.70;3.70;;;;;;;-3.14;74.37;99768.73;220024;1271;22634;-68
2022/01/22 21:09:37;;;;;;;10.20;4.00;;;;;;;-3.14;74.50;99766.98;220078;1271;24260;-68
2022/01/22 21:14:39;;;;;;;10.20;3.80;;;;;;;-3.15;74.55;99765.33;219822;1271;23315;-67
2022/01/22 21:19:51;;;;;;;11.10;4.20;;;;;;;-3.16;74.41;99758.15;219922;1271;25654;-68
2022/01/22 21:24:54;;;;;;;7.10;3.50;;;;;;;-3.18;74.35;99752.24;219926;1271;25401;-68
2022/01/22 21:29:56;;;;;;;8.10;3.50;;;;;;;-3.20;74.45;99750.73;220331;1269;23030;-68
2022/01/22 21:34:59;;;;;;;14.80;6.40;;;;;;;-3.25;74.42;99747.53;220077;1271;23038;-67
2022/01/22 21:40:05;;;;;;;8.90;3.50;;;;;;;-3.33;74.32;99751.23;219919;1271;22649;-68
2022/01/22 21:45:08;;;;;;;8.70;4.10;;;;;;;-3.42;74.34;99757.70;220167;1271;23082;-69
2022/01/22 21:50:10;;;;;;;12.90;5.10;;;;;;;-3.51;74.44;99755.60;219992;1271;26539;-69
2022/01/22 21:55:14;;;;;;;13.50;5.30;;;;;;;-3.56;74.58;99754.76;219866;1271;22768;-67
2022/01/22 22:00:16;;;;;;;12.80;5.00;;;;;;;-3.60;74.60;99752.48;220037;1269;22561;-68
2022/01/22 22:05:30;;;;;;;12.50;4.60;;;;;;;-3.65;74.62;99748.33;220300;1270;22636;-69
2022/01/22 22:10:33;;;;;;;16.60;6.50;;;;;;;-3.70;74.54;99748.61;220040;1271;22646;-68
2022/01/22 22:15:44;;;;;;;17.00;6.50;;;;;;;-3.76;74.75;99748.33;220111;1271;22573;-69
2022/01/22 22:20:47;;;;;;;17.50;7.70;;;;;;;-3.80;74.67;99757.23;219896;1270;24338;-69
2022/01/22 22:25:53;;;;;;;17.80;7.00;;;;;;;-3.87;74.67;99757.94;219811;1271;22776;-68
2022/01/22 22:30:58;;;;;;;19.20;7.40;;;;;;;-3.94;74.79;99757.19;220094;1271;22792;-69
2022/01/22 22:36:01;;;;;;;17.80;8.00;;;;;;;-4.02;74.72;99754.66;220159;1271;25403;-69
2022/01/22 22:41:06;;;;;;;27.70;9.40;;;;;;;-4.14;74.69;99752.32;219620;1271;24422;-69
2022/01/22 22:46:12;;;;;;;25.90;10.10;;;;;;;-4.28;74.69;99751.41;219947;1271;25726;-70
2022/01/22 22:51:15;;;;;;;23.60;9.00;;;;;;;-4.46;74.84;99750.10;220110;1270;24281;-69
2022/01/22 22:56:22;;;;;;;19.00;9.20;;;;;;;-4.65;74.99;99753.99;220138;1271;24132;-68
2022/01/22 23:01:33;;;;;;;20.80;9.20;;;;;;;-4.83;75.20;99757.52;220097;1271;24547;-69
2022/01/22 23:06:35;;;;;;;23.40;10.00;;;;;;;-4.98;75.44;99758.09;219524;1271;24241;-68
2022/01/22 23:11:58;;;;;;;23.60;10.00;;;;;;;-5.13;75.54;99755.49;219995;1271;22695;-68
2022/01/22 23:17:43;;;;;;;23.00;10.30;;;;;;;-5.26;75.95;99759.80;220099;1271;22567;-69
2022/01/22 23:23:11;;;;;;;23.80;10.00;;;;;;;-5.42;76.04;99768.55;220060;1269;24736;-68
2022/01/22 23:28:25;;;;;;;25.60;10.90;;;;;;;-5.57;76.09;99775.68;219987;1270;22818;-69
2022/01/22 23:33:33;;;;;;;25.10;11.40;;;;;;;-5.72;76.39;99780.20;219958;1271;22819;-68
2022/01/22 23:54:55;;;;;;;23.50;10.20;;;;;;;-6.10;77.26;99768.90;219940;1271;25564;-68
